Latest Weather Observations for Clare

IDS60801

Issued at 10:31 pm CDT Thursday 5 March 2015 (issued every 30 minutes, with the page automatically refreshed every 10 minutes)

About weather observations | Map of weather stations | Latest weather observations for SA | Other Formats
Station Details ID: 021131 Name: CLARE HIGH SCHOOL Lat: -33.82 Lon: 138.59 Height: 395.0 m
Data from the previous 72 hours. | See also: Recent months at Clare
Date/Time
CDT
Temp
°C
App
Temp
°C
Dew
Point
Rel
Hum
%
Delta-T
°C
Wind Press
QNH
hPa
Press
MSL
hPa
Rain
since 9 am
mm
Dir
 
Spd
km/h
Gust
km/h
Spd
kts
Gust
kts
05/10:30pm 12.9 9.5 7.8 71 2.5 S 15 28 8 15 1022.4 - 0.2
05/10:00pm 13.2 9.4 7.4 68 2.9 S 17 28 9 15 1022.5 - 0.2
05/09:30pm 13.4 9.8 6.7 64 3.3 S 15 26 8 14 1022.2 - 0.2
05/09:00pm 13.9 10.2 6.5 61 3.6 S 15 28 8 15 1021.8 1020.6 0.2
05/08:30pm 14.3 11.1 6.9 61 3.7 S 13 19 7 10 1021.5 - 0.2
05/08:00pm 14.9 11.5 7.5 61 3.7 S 15 28 8 15 1021.4 - 0.2
05/07:30pm 16.1 11.8 7.1 55 4.5 S 19 30 10 16 1021.3 - 0.2
05/07:00pm 17.9 13.8 6.4 47 5.8 SSW 17 28 9 15 1021.0 - 0.2
05/06:30pm 19.1 14.4 5.2 40 6.9 SSW 19 37 10 20 1020.4 - 0.2
05/06:00pm 20.0 15.2 4.9 37 7.5 SSW 19 32 10 17 1020.2 1019.0 0.2
05/05:30pm 21.3 16.9 4.8 34 8.3 S 17 26 9 14 1019.8 - 0.2
05/05:00pm 21.4 16.9 4.0 32 8.6 SSW 17 28 9 15 1019.9 - 0.2
05/04:30pm 22.3 17.6 2.9 28 9.4 SW 17 32 9 17 1020.0 - 0.2
05/04:00pm 22.6 18.0 1.6 25 10.0 S 15 32 8 17 1020.3 - 0.2
05/03:30pm 21.7 17.2 -0.3 23 10.0 S 13 20 7 11 1020.7 - 0.2
05/03:00pm 22.2 18.2 2.8 28 9.4 SSE 13 24 7 13 1021.0 1019.7 0.2
05/02:30pm 21.2 17.8 3.9 32 8.5 SSE 11 22 6 12 1021.3 - 0.2
05/02:00pm 20.2 16.7 3.4 33 8.1 SSE 11 26 6 14 1021.7 - 0.2
05/01:30pm 19.4 15.6 4.0 36 7.5 SSE 13 24 7 13 1022.1 - 0.2
05/01:00pm 18.4 14.7 4.6 40 6.7 ESE 13 22 7 12 1022.2 - 0.2
05/12:30pm 18.3 14.3 4.8 41 6.6 SE 15 26 8 14 1022.7 - 0.2
05/12:00pm 17.1 13.7 6.0 48 5.5 SE 13 22 7 12 1023.0 1021.8 0.2
05/11:30am 16.7 13.2 7.1 53 4.8 S 15 22 8 12 1023.4 - 0.0
05/11:00am 16.0 13.0 7.5 57 4.3 SSE 13 20 7 11 1023.3 - 0.0
05/10:30am 15.6 11.3 6.9 56 4.4 S 19 30 10 16 1022.8 - 0.0
05/10:00am 14.9 11.2 6.5 57 4.2 SE 15 28 8 15 1022.6 - 0.0
05/09:30am 14.3 11.7 7.6 64 3.4 SSE 11 22 6 12 1022.5 - 0.0
05/09:00am 13.8 11.8 7.3 65 3.2 SSE 7 20 4 11 1022.4 1021.2 0.4
05/08:30am 13.3 10.5 6.9 65 3.2 S 11 19 6 10 1022.5 - 0.4
05/08:00am 12.9 9.7 6.9 67 3.0 SSE 13 24 7 13 1021.9 - 0.4
05/07:30am 12.7 9.6 8.8 77 2.0 SSE 15 24 8 13 1021.4 - 0.4
05/07:00am 13.0 9.2 8.9 76 2.1 S 19 30 10 16 1021.0 - 0.4
05/06:30am 13.3 10.0 9.5 78 2.0 S 17 26 9 14 1020.7 - 0.4
05/06:00am 13.5 10.6 11.0 85 1.3 S 17 30 9 16 1020.4 1019.2 0.4
05/05:30am 13.6 11.4 12.0 90 0.9 S 15 24 8 13 1020.0 - 0.4
05/05:00am 13.8 12.3 13.0 95 0.4 S 13 26 7 14 1019.8 - 0.4
05/04:30am 13.7 12.2 13.1 96 0.3 SSW 13 26 7 14 1019.7 - 0.4
05/04:00am 13.9 12.9 13.3 96 0.3 SSW 11 19 6 10 1019.5 - 0.2
05/03:30am 13.8 12.2 12.9 94 0.5 S 13 22 7 12 1019.7 - 0.2
05/03:00am 14.7 12.2 12.4 86 1.3 SW 17 30 9 16 1019.8 1018.6 0.0
05/02:30am 15.4 12.9 11.2 76 2.3 SW 15 28 8 15 1019.9 - 0.0
05/02:00am 15.4 12.7 10.2 71 2.8 SW 15 26 8 14 1020.1 - 0.0
05/01:30am 15.5 13.4 9.8 69 3.0 SW 11 24 6 13 1020.3 - 0.0
05/01:00am 15.3 12.4 10.9 75 2.4 SW 17 30 9 16 1020.6 - 0.0
05/12:30am 15.5 12.0 10.9 74 2.5 SW 20 35 11 19 1020.1 - 0.0
05/12:00am 15.7 12.1 10.0 69 3.0 SSW 19 32 10 17 1019.9 1018.7 0.0
 
Date/Time
CDT
Temp
°C
App
Temp
°C
Dew
Point
Rel
Hum
%
Delta-T
°C
Wind Press
QNH
hPa
Press
MSL
hPa
Rain
since 9 am
mm
Dir
 
Spd
km/h
Gust
km/h
Spd
kts
Gust
kts
04/11:30pm 15.6 13.2 10.2 70 2.9 SSW 13 24 7 13 1019.8 - 0.0
04/11:00pm 15.5 12.9 10.7 73 2.6 SW 15 26 8 14 1020.0 - 0.0
04/10:30pm 14.9 12.2 10.5 75 2.4 SW 15 28 8 15 1019.9 - 0.0
04/10:00pm 14.7 11.5 10.1 74 2.4 SW 17 28 9 15 1020.2 - 0.0
04/09:30pm 15.3 12.5 10.1 71 2.8 SSW 15 32 8 17 1019.7 - 0.0
04/09:00pm 16.0 14.0 10.1 68 3.2 SW 11 20 6 11 1019.1 1017.9 0.0
04/08:30pm 16.4 14.4 10.0 66 3.4 WSW 11 17 6 9 1018.7 - 0.0
04/08:00pm 17.2 14.7 9.6 61 4.1 SW 13 24 7 13 1018.6 - 0.0
04/07:30pm 18.2 15.1 9.0 55 4.9 SW 15 28 8 15 1018.2 - 0.0
04/07:00pm 20.1 16.8 8.1 46 6.3 SW 15 28 8 15 1017.8 - 0.0
04/06:30pm 21.0 16.6 7.6 42 7.1 SW 20 33 11 18 1017.7 - 0.0
04/06:00pm 21.4 16.8 6.5 38 7.7 WSW 20 32 11 17 1017.5 1016.3 0.0
04/05:30pm 22.1 18.4 7.9 40 7.6 SW 17 30 9 16 1017.4 - 0.0
04/05:00pm 23.0 19.8 8.3 39 7.9 SW 15 26 8 14 1017.2 - 0.0
04/04:30pm 22.5 18.3 7.5 38 8.0 S 19 32 10 17 1017.1 - 0.0
04/04:00pm 24.7 21.0 7.8 34 9.1 SSW 17 28 9 15 1017.2 - 0.0
04/03:30pm 23.2 18.9 6.9 35 8.6 SSW 19 32 10 17 1017.5 - 0.0
04/03:00pm 22.7 18.4 6.9 36 8.3 SW 19 28 10 15 1018.0 1016.7 0.0
04/02:30pm 23.6 20.0 8.5 38 8.2 WSW 17 30 9 16 1018.2 - 0.0
04/02:00pm 22.9 18.9 6.6 35 8.5 SW 17 28 9 15 1018.4 - 0.0
04/01:30pm 22.3 18.9 7.7 39 7.8 SSW 15 24 8 13 1018.3 - 0.0
04/01:00pm 21.7 18.5 6.8 38 7.8 W 13 20 7 11 1018.8 - 0.0
04/12:30pm 21.0 17.2 5.8 37 7.7 SW 15 20 8 11 1019.2 - 0.0
04/12:00pm 19.7 16.3 6.1 41 6.9 SSW 13 22 7 12 1019.6 1018.4 0.0
04/11:30am 18.8 15.6 8.5 51 5.4 SW 15 24 8 13 1019.9 - 0.0
04/11:00am 18.9 15.7 8.6 51 5.5 SSW 15 22 8 12 1019.7 - 0.0
04/10:30am 18.1 15.3 8.4 53 5.1 SW 13 19 7 10 1019.8 - 0.0
04/10:00am 18.5 16.4 8.2 51 5.4 SW 9 13 5 7 1019.8 - 0.0
04/09:30am 17.0 14.8 7.9 55 4.7 SSE 9 17 5 9 1019.6 - 0.0
04/09:00am 15.9 13.8 8.2 60 4.0 E 9 15 5 8 1019.4 1018.2 0.0
04/08:30am 15.0 13.5 8.5 65 3.4 E 6 11 3 6 1019.2 - 0.0
04/08:00am 14.1 12.5 8.9 71 2.7 SE 7 11 4 6 1019.4 - 0.0
04/07:30am 13.5 13.2 8.8 73 2.4 CALM 0 6 0 3 1019.0 - 0.0
04/07:00am 13.6 12.5 8.4 71 2.7 SSE 4 9 2 5 1018.6 - 0.0
04/06:30am 13.8 11.7 8.2 69 2.8 SSE 9 13 5 7 1018.5 - 0.0
04/06:00am 14.3 12.7 7.8 65 3.3 SE 6 11 3 6 1018.0 1016.7 0.0
04/05:30am 14.6 13.6 7.4 62 3.6 SE 2 7 1 4 1018.0 - 0.0
04/05:00am 14.9 13.2 7.5 61 3.7 SE 6 11 3 6 1017.7 - 0.0
04/04:30am 15.1 13.2 7.6 61 3.8 SSE 7 13 4 7 1017.7 - 0.0
04/04:00am 15.4 13.2 7.7 60 3.9 S 9 15 5 8 1017.6 - 0.0
04/03:30am 15.7 14.1 8.2 61 3.9 S 6 13 3 7 1017.4 - 0.0
04/03:00am 15.4 13.4 8.6 64 3.5 S 9 13 5 7 1017.5 1016.3 0.0
04/02:30am 15.2 12.8 8.7 65 3.4 SSW 11 15 6 8 1018.3 - 0.0
04/02:00am 15.7 14.5 9.6 67 3.2 SSW 6 9 3 5 1018.7 - 0.0
04/01:30am 16.0 14.9 10.1 68 3.2 SSW 6 9 3 5 1018.8 - 0.0
04/01:00am 16.2 15.3 10.7 70 3.0 SSW 6 9 3 5 1018.7 - 0.0
04/12:30am 16.4 15.5 10.7 69 3.1 S 6 7 3 4 1018.7 - 0.0
04/12:00am 16.6 16.1 10.9 69 3.1 S 4 9 2 5 1018.8 1017.5 0.0
 
Date/Time
CDT
Temp
°C
App
Temp
°C
Dew
Point
Rel
Hum
%
Delta-T
°C
Wind Press
QNH
hPa
Press
MSL
hPa
Rain
since 9 am
mm
Dir
 
Spd
km/h
Gust
km/h
Spd
kts
Gust
kts
03/11:30pm 16.8 15.8 11.1 69 3.1 S 7 15 4 8 1018.9 - 0.0
03/11:00pm 17.1 16.2 11.2 68 3.2 SSW 7 15 4 8 1019.0 - 0.0
03/10:30pm 17.3 16.0 11.1 67 3.4 S 9 17 5 9 1019.0 - 0.0
03/10:00pm 17.6 15.8 10.9 65 3.7 S 11 17 6 9 1019.0 - 0.0
03/09:30pm 17.9 16.5 10.8 63 3.9 S 9 13 5 7 1018.6 - 0.0
03/09:00pm 18.5 16.5 10.3 59 4.5 SSW 11 20 6 11 1018.2 1016.9 0.0
03/08:30pm 19.0 16.4 9.5 54 5.1 SSW 13 22 7 12 1017.8 - 0.0
03/08:00pm 19.6 16.9 8.9 50 5.7 SSW 13 24 7 13 1017.6 - 0.0
03/07:30pm 20.4 17.3 9.0 48 6.1 SSW 15 24 8 13 1017.2 - 0.0
03/07:00pm 21.5 19.0 9.7 47 6.5 SSW 13 22 7 12 1016.9 - 0.0
03/06:30pm 22.4 20.4 10.2 46 6.8 SSW 11 20 6 11 1016.7 - 0.0
03/06:00pm 23.7 21.0 10.4 43 7.5 SW 15 32 8 17 1016.6 1015.3 0.0
03/05:30pm 24.3 20.9 10.6 42 7.7 SSW 19 32 10 17 1016.2 - 0.0
03/05:00pm 24.9 21.3 10.0 39 8.4 SW 19 30 10 16 1016.1 - 0.0
03/04:30pm 26.1 22.8 9.4 35 9.3 SW 17 28 9 15 1016.2 - 0.0
03/04:00pm 27.6 24.4 8.5 30 10.6 WSW 15 28 8 15 1016.2 - 0.0
03/03:30pm 27.4 23.9 7.3 28 10.9 S 15 26 8 14 1016.2 - 0.0
03/03:00pm 26.4 23.1 6.4 28 10.6 WNW 13 22 7 12 1016.5 1015.2 0.0
03/02:30pm 27.1 23.8 6.5 27 11.0 W 13 20 7 11 1016.8 - 0.0
03/02:00pm 26.3 23.4 6.3 28 10.6 SW 11 19 6 10 1017.2 - 0.0
03/01:30pm 26.5 23.8 7.5 30 10.3 SSW 11 19 6 10 1017.4 - 0.0
03/01:00pm 26.1 23.8 5.7 27 10.7 NNE 7 15 4 8 1017.5 - 0.0
03/12:30pm 25.3 23.2 6.5 30 9.9 ENE 7 11 4 6 1018.0 - 0.0
03/12:00pm 23.9 21.7 6.2 32 9.2 NNE 7 11 4 6 1018.5 1017.2 0.0
03/11:30am 23.7 21.7 6.9 34 8.9 E 7 15 4 8 1018.8 - 0.0
03/11:00am 22.2 20.2 7.2 38 7.9 E 7 13 4 7 1019.0 - 0.0
03/10:30am 21.5 19.6 7.7 41 7.3 E 7 11 4 6 1019.0 - 0.0
03/10:00am 21.1 19.4 8.4 44 6.8 ESE 7 13 4 7 1018.9 - 0.0
03/09:30am 20.4 18.9 8.4 46 6.4 ESE 6 11 3 6 1018.7 - 0.0
03/09:00am 20.1 18.5 8.8 48 6.0 ESE 7 13 4 7 1018.4 1017.1 0.0
03/08:30am 18.9 17.9 10.2 57 4.7 SE 6 9 3 5 1018.1 - 0.0
03/08:00am 18.1 17.1 11.0 63 3.9 E 7 9 4 5 1017.4 - 0.0
03/07:30am 17.2 17.6 11.2 68 3.3 CALM 0 2 0 1 1017.2 - 0.0
03/07:00am 17.3 17.3 11.1 67 3.4 ESE 2 9 1 5 1016.5 - 0.0
03/06:30am 17.7 17.7 11.0 65 3.7 S 2 6 1 3 1016.5 - 0.0
03/06:00am 17.8 17.2 11.6 67 3.4 SSE 6 9 3 5 1016.4 1015.1 0.0
03/05:30am 18.0 18.0 11.1 64 3.8 ESE 2 7 1 4 1016.1 - 0.0
03/05:00am 17.8 17.3 12.0 69 3.3 E 6 9 3 5 1016.1 - 0.0
03/04:30am 17.6 17.9 12.3 71 3.0 SSE 2 7 1 4 1015.9 - 0.0
03/04:00am 17.4 17.5 12.7 74 2.7 SSE 4 7 2 4 1016.1 - 0.0
03/03:30am 17.1 17.0 14.0 82 1.8 S 7 9 4 5 1016.4 - 0.0
03/03:00am 17.1 16.5 13.6 80 2.0 S 9 13 5 7 1016.2 1014.9 0.0
03/02:30am 17.2 16.3 12.5 74 2.7 SSW 9 15 5 8 1016.3 - 0.0
03/02:00am 17.8 15.9 8.9 56 4.7 S 9 13 5 7 1016.3 - 0.0
03/01:30am 17.8 16.3 10.7 63 3.9 S 9 17 5 9 1016.4 - 0.0
03/01:00am 18.1 18.3 10.7 62 4.1 CALM 0 0 0 0 1016.5 - 0.0
03/12:30am 18.2 17.3 11.5 65 3.7 S 7 11 4 6 1016.6 - 0.0
03/12:00am 18.4 17.5 10.5 60 4.3 SSW 6 9 3 5 1016.8 1015.6 0.0
 
Date/Time
CDT
Temp
°C
App
Temp
°C
Dew
Point
Rel
Hum
%
Delta-T
°C
Wind Press
QNH
hPa
Press
MSL
hPa
Rain
since 9 am
mm
Dir
 
Spd
km/h
Gust
km/h
Spd
kts
Gust
kts
02/11:30pm 18.9 18.2 8.6 51 5.5 SSW 2 6 1 3 1017.0 - 0.0
02/11:00pm 19.7 17.0 7.4 45 6.4 S 11 19 6 10 1016.9 - 0.0

Other Formats:

Comma delimited format used in spreadsheet applications
http://www.bom.gov.au/fwo/IDS60801/IDS60801.95667.axf

JavaScript Object Notation format (JSON) in row-major order
http://www.bom.gov.au/fwo/IDS60801/IDS60801.95667.json